createdAt,value
2019-05-02T05:48:36.508Z,9.70
2019-05-02T05:58:39.985Z,10.70
2019-05-02T06:08:41.505Z,10.70
2019-05-02T06:18:43.722Z,11.40
2019-05-02T06:28:46.631Z,12.00
2019-05-02T06:38:52.117Z,13.00
2019-05-02T07:09:18.154Z,14.70
2019-05-02T07:19:27.366Z,15.40
2019-05-02T07:29:29.387Z,15.40
2019-05-02T07:39:30.706Z,16.30
2019-05-02T07:49:40.126Z,16.60
2019-05-02T07:59:42.056Z,19.20
2019-05-02T08:09:46.388Z,21.80
2019-05-02T08:19:48.603Z,26.20
2019-05-02T08:29:51.016Z,27.00
2019-05-02T08:39:52.907Z,27.50
2019-05-02T08:49:56.767Z,29.20
2019-05-02T09:00:02.837Z,31.40
2019-05-02T09:10:05.734Z,30.20
2019-05-02T09:20:15.422Z,30.20
2019-05-02T09:30:07.788Z,31.10
2019-05-02T09:40:12.659Z,33.00
2019-05-02T09:50:12.854Z,32.20
2019-05-02T10:00:16.310Z,32.20
2019-05-02T10:10:17.714Z,33.20
2019-05-02T10:20:23.600Z,32.20
2019-05-02T10:30:21.685Z,28.10
2019-05-02T10:40:22.561Z,27.20
2019-05-02T10:50:22.970Z,24.90
2019-05-02T11:00:24.262Z,24.00
2019-05-02T11:10:25.516Z,23.70
2019-05-02T11:20:26.769Z,23.70
2019-05-02T11:30:29.107Z,23.50
2019-05-02T11:50:46.949Z,23.20
2019-05-02T12:00:49.607Z,23.20
2019-05-02T12:10:51.795Z,23.40
2019-05-02T12:20:51.953Z,23.20
2019-05-02T12:30:52.279Z,23.60
2019-05-02T12:40:53.623Z,23.20
2019-05-02T12:50:55.687Z,23.00
2019-05-02T13:00:56.974Z,22.90
2019-05-02T13:11:02.397Z,22.50
2019-05-02T13:21:02.221Z,22.50
2019-05-02T13:31:02.727Z,22.60
2019-05-02T13:41:03.989Z,22.50
2019-05-02T13:51:05.273Z,22.20
2019-05-02T14:01:06.522Z,21.80
2019-05-02T14:21:19.424Z,22.40
2019-05-02T14:31:24.210Z,22.50
2019-05-02T14:41:30.015Z,22.50
2019-05-02T15:01:36.150Z,22.30
2019-05-02T15:11:38.209Z,22.30
2019-05-02T15:21:39.506Z,22.20
2019-05-02T15:31:42.082Z,22.30
2019-05-02T15:41:44.727Z,22.30
2019-05-02T15:51:49.418Z,22.40
2019-05-02T16:01:47.734Z,22.30
2019-05-02T16:11:47.952Z,22.10
2019-05-02T16:21:47.389Z,22.50
2019-05-02T16:31:48.662Z,22.20
2019-05-02T16:41:51.072Z,21.90
2019-05-02T16:51:52.855Z,21.80
2019-05-02T17:01:54.548Z,21.60
2019-05-02T17:11:54.016Z,21.30
2019-05-02T17:21:56.583Z,20.50
2019-05-02T17:31:59.304Z,20.10
2019-05-02T17:42:00.975Z,19.50
2019-05-02T18:02:12.285Z,18.60
2019-05-02T18:12:15.064Z,17.80
2019-05-02T18:22:23.396Z,17.20
2019-05-02T18:42:27.726Z,16.30
2019-05-02T18:52:36.333Z,16.30
2019-05-02T19:02:35.292Z,16.00
2019-05-02T19:12:32.880Z,15.70
2019-05-02T22:27:36.931Z,15.60
2019-05-02T22:37:38.209Z,15.40
2019-05-02T22:47:39.511Z,15.50
2019-05-02T22:57:42.067Z,15.50
